עמוד ראשי
תמונות לווין תחזית 10-יוםאקליםתחזית ים סופות טרופיות ברקים שדות תעופהשאלות נפוצות עלון אודות
מזג אוויר : אירופה אפריקה אמריקה הצפונית אמריקה הדרומית אסיה אוסטרליה-אוקיאניה אחרים
שפות איש קשר

שטוטגרט, גרמניה

Echterdingen

קו רוחב: 48-41N, קו אורך: 009-13E, גובה: 396מטר


METAR: EDDS 290750Z 21011KT CAVOK 01/M02 Q0999 NOSIG
TAF: EDDS 290500Z 2906/3006 23008KT 9999 SCT020 TEMPO 2910/2915 21015G25KT 4000 SHRASN BKN012TCU TEMPO 2915/2924 RA BKN008 TEMPO 3000/3004 4000 SNRA BKN005

זמן: 09:13 (08:13 UTC)

תצפית מזג אוויר נוכחית

הדו"ח נערך לפני 23דקות, בשעה 07:50 UTC
רוח 11קשר מכיוון דרום/דרום-מערב
טמפרטורת 1 צלסיוס
לחות 80%
לחץ 999 hPa
ראות 10 קילומטר או יותר
ללא עננים שבסיסם נמוך מ 1500 רגל או קומולונימבוס

שנה יחידות

תחזית

הדו"ח נערך לפני 3 שעות ו 13דקות, בשעה 05:00 UTC
תחזית בתוקף מ 29 ב 06 UTC עד 30 ב 06 UTC
רוח 8קשר מכיוון דרום-מערב
ראות 10 קילומטר או יותר
עננים פזורים בגובה 2000רגל
זמנית מ -
29 ב 10 UTC עד 29 ב 15 UTC
רוח 15קשר מכיוון דרום/דרום-מערב עם משבים עד 25קשר
ראות: 4000מטר
עננים בינוניים בגובה 1200רגל , קומולוס מיגדלי.
ממטרי גשם שלג
זמנית מ -
29 ב 15 UTC עד 29 ב 24 UTC
עננים בינוניים בגובה 800רגל
גשם
זמנית מ -
30 ב 00 UTC עד 30 ב 04 UTC
ראות: 4000מטר
עננים בינוניים בגובה 500רגל
שלג גשם
המידע באתר זה מותנה של תניית פטור
מזג אוויר : אירופה אפריקה אמריקה הצפונית אמריקה הדרומית אסיה אוסטרליה-אוקיאניה אחרים
תמונות לווין תחזית 10-יוםאקליםתחזית ים סופות טרופיות ברקים שדות תעופהשאלות נפוצות שפות איש קשר עלון אודות